Time;durP1;ratioP1;P1;durP2;ratioP2;P2;SDS_P1;SDS_P2;PMS_P1;PMS_P2;Temp;Humidity;BMP_temperature;BMP_pressure;BME280_temperature;BME280_humidity;BME280_pressure;Samples;Min_cycle;Max_cycle;Signal;HPM_P1;HPM_P2
2022/01/07 00:02:00;;;;;;;59.97;37.03;;;180.10;2252.80;;;;;;4973568;28;20026;-69
2022/01/07 00:04:27;;;;;;;72.45;44.10;;;180.10;2252.80;;;;;;4973334;28;20062;-70
2022/01/07 00:06:53;;;;;;;48.72;28.75;;;;;;;;;;4973396;28;20461;-70
2022/01/07 00:09:19;;;;;;;51.05;33.22;;;;;;;;;;4972798;28;20425;-70
2022/01/07 00:11:45;;;;;;;60.00;39.25;;;204.90;2252.80;;;;;;4981548;28;20031;-70
2022/01/07 00:14:11;;;;;;;52.35;32.72;;;205.00;2252.80;;;;;;4977338;28;20027;-70
2022/01/07 00:16:37;;;;;;;50.08;29.95;;;205.10;2252.80;;;;;;4982834;28;20113;-61
2022/01/07 00:19:03;;;;;;;49.08;28.83;;;205.20;2252.80;;;;;;4976818;28;20035;-67
2022/01/07 00:21:29;;;;;;;42.38;25.83;;;205.10;2252.80;;;;;;4976972;28;20037;-70
2022/01/07 00:23:55;;;;;;;44.92;26.55;;;205.10;2252.80;;;;;;4976924;28;20022;-67
2022/01/07 00:26:23;;;;;;;37.97;23.17;;;205.10;2252.80;;;;;;4976411;28;20046;-70
2022/01/07 00:28:52;;;;;;;37.72;23.42;;;205.20;2252.80;;;;;;4976348;28;20046;-64
2022/01/07 00:31:18;;;;;;;52.85;31.17;;;205.10;2252.80;;;;;;4976298;28;20396;-69
2022/01/07 00:33:44;;;;;;;50.15;30.50;;;205.00;2252.80;;;;;;4983238;28;20037;-69
2022/01/07 00:36:10;;;;;;;52.50;29.20;;;205.00;2252.80;;;;;;4980690;28;20027;-66
2022/01/07 00:38:36;;;;;;;56.88;33.13;;;205.00;2252.80;;;;;;4976662;28;20019;-68
2022/01/07 00:41:03;;;;;;;53.08;32.05;;;205.00;2252.80;;;;;;4977140;28;20045;-62
2022/01/07 00:43:31;;;;;;;51.05;30.65;;;180.10;2252.80;;;;;;4977823;28;20031;-71
2022/01/07 00:45:57;;;;;;;47.53;26.42;;;180.00;2252.80;;;;;;4959415;28;20047;-69
2022/01/07 00:48:23;;;;;;;46.17;28.55;;;180.10;2252.80;;;;;;4976799;28;20394;-70
2022/01/07 00:50:49;;;;;;;40.63;24.67;;;204.80;2252.80;;;;;;4976690;28;20034;-71
2022/01/07 00:53:14;;;;;;;36.15;22.67;;;180.10;2252.80;;;;;;4976274;28;20026;-67
2022/01/07 00:55:41;;;;;;;38.20;21.77;;;204.80;2252.80;;;;;;4976187;28;20433;-67
2022/01/07 00:58:07;;;;;;;40.65;26.13;;;;;;;;;;4976002;28;20109;-63
2022/01/07 01:00:33;;;;;;;52.28;30.92;;;179.60;2252.80;;;;;;4975855;28;20043;-69
2022/01/07 01:03:00;;;;;;;43.85;26.65;;;;;;;;;;4976287;28;20147;-67
2022/01/07 01:05:26;;;;;;;50.47;27.33;;;;;;;;;;4976766;28;20117;-61
2022/01/07 01:07:56;;;;;;;46.20;28.92;;;;;;;;;;4975867;28;20503;-68
2022/01/07 01:10:24;;;;;;;50.45;28.77;;;;;;;;;;4977908;28;20428;-70
2022/01/07 01:12:51;;;;;;;47.03;28.23;;;;;;;;;;4975976;28;20076;-67
2022/01/07 01:15:22;;;;;;;44.20;24.30;;;;;;;;;;4978566;28;20038;-70
2022/01/07 01:17:49;;;;;;;45.75;26.38;;;;;;;;;;4980970;28;20027;-66
2022/01/07 01:20:15;;;;;;;47.17;27.05;;;;;;;;;;4995362;28;20042;-68
2022/01/07 01:22:41;;;;;;;50.55;28.95;;;;;;;;;;4978333;28;20023;-69
2022/01/07 01:25:08;;;;;;;42.25;25.50;;;;;;;;;;4977976;28;20049;-69
2022/01/07 01:27:34;;;;;;;43.38;26.63;;;204.80;2252.80;;;;;;4994461;28;20108;-68
2022/01/07 01:30:01;;;;;;;40.50;25.33;;;;;;;;;;4995306;28;20416;-67
2022/01/07 01:32:27;;;;;;;48.67;27.92;;;;;;;;;;4992284;28;20089;-63
2022/01/07 01:34:56;;;;;;;50.70;25.27;;;;;;;;;;4974966;28;20032;-68
2022/01/07 01:37:22;;;;;;;52.30;27.20;;;;;;;;;;4975531;28;20033;-70
2022/01/07 01:39:48;;;;;;;45.58;27.85;;;;;;;;;;4982162;28;20042;-71
2022/01/07 01:42:14;;;;;;;52.95;30.95;;;;;;;;;;4994663;28;20027;-71
2022/01/07 01:44:40;;;;;;;44.13;25.55;;;;;;;;;;4985202;28;20027;-71
2022/01/07 01:47:06;;;;;;;44.60;27.33;;;;;;;;;;4975955;28;20089;-68
2022/01/07 01:49:33;;;;;;;41.83;24.50;;;180.00;2252.80;;;;;;4975656;28;20035;-70
2022/01/07 01:52:00;;;;;;;41.42;26.17;;;179.50;2252.80;;;;;;4976197;28;20026;-69
2022/01/07 01:54:26;;;;;;;44.83;27.77;;;;;;;;;;4975580;28;20433;-64
2022/01/07 01:56:52;;;;;;;47.58;29.58;;;179.70;2252.80;;;;;;4975153;28;20031;-62
2022/01/07 01:59:25;;;;;;;44.70;28.10;;;;;;;;;;4974948;28;20579;-64
2022/01/07 02:01:51;;;;;;;52.28;32.95;;;;;;;;;;4975297;28;20023;-69
2022/01/07 02:04:18;;;;;;;48.45;29.90;;;;;;;;;;4974855;28;20092;-61
2022/01/07 02:06:44;;;;;;;46.35;30.23;;;;;;;;;;4981971;28;20474;-67
2022/01/07 02:09:10;;;;;;;51.72;31.75;;;;;;;;;;4993518;28;20026;-61
2022/01/07 02:11:36;;;;;;;48.60;34.10;;;;;;;;;;4974673;28;20059;-67
2022/01/07 02:14:02;;;;;;;53.17;31.75;;;;;;;;;;4974051;28;20042;-68
2022/01/07 02:16:28;;;;;;;52.13;33.38;;;;;;;;;;4974237;28;20025;-64
2022/01/07 02:18:55;;;;;;;54.17;31.80;;;205.00;2252.80;;;;;;4974690;28;20034;-66
2022/01/07 02:21:21;;;;;;;52.55;37.13;;;180.10;2252.80;;;;;;4974711;28;20030;-69
2022/01/07 02:23:48;;;;;;;53.33;30.75;;;;;;;;;;4974751;28;20026;-72
2022/01/07 02:26:14;;;;;;;43.53;27.25;;;;;;;;;;4974317;28;20101;-66
2022/01/07 02:28:41;;;;;;;45.97;28.25;;;;;;;;;;4974535;28;20027;-66
2022/01/07 02:31:07;;;;;;;56.85;36.17;;;;;;;;;;4974241;28;20028;-68
2022/01/07 02:33:34;;;;;;;56.15;36.47;;;;;;;;;;4974194;28;20082;-67
2022/01/07 02:36:09;;;;;;;47.17;30.70;;;204.90;2252.80;;;;;;4974205;28;20127;-66
2022/01/07 02:38:35;;;;;;;44.40;29.33;;;180.10;2252.80;;;;;;4974201;28;20035;-67
2022/01/07 02:41:01;;;;;;;41.08;25.27;;;204.80;2252.80;;;;;;4990278;28;20038;-66
2022/01/07 02:43:27;;;;;;;37.53;24.50;;;;;;;;;;4993520;28;20384;-67
2022/01/07 02:45:53;;;;;;;45.83;28.63;;;;;;;;;;4993573;28;20481;-67
2022/01/07 02:48:20;;;;;;;52.22;32.90;;;204.90;2252.80;;;;;;4993647;28;20314;-68
2022/01/07 02:50:45;;;;;;;53.78;35.22;;;204.80;2252.80;;;;;;4993616;28;20023;-67
2022/01/07 02:53:11;;;;;;;64.88;38.30;;;204.80;2252.80;;;;;;4993664;28;20083;-64
2022/01/07 02:55:38;;;;;;;50.17;34.13;;;204.90;2252.80;;;;;;4993547;28;20037;-68
2022/01/07 02:58:05;;;;;;;53.20;35.40;;;204.90;2252.80;;;;;;4993671;28;20026;-68
2022/01/07 03:00:32;;;;;;;50.60;33.00;;;;;;;;;;4975920;28;20038;-68
2022/01/07 03:02:58;;;;;;;42.38;28.52;;;;;;;;;;4973754;28;20029;-66
2022/01/07 03:05:25;;;;;;;43.35;28.23;;;;;;;;;;4973687;28;20030;-62
2022/01/07 03:07:51;;;;;;;41.35;27.63;;;;;;;;;;4973831;28;20030;-71
2022/01/07 03:10:32;;;;;;;39.00;25.50;;;;;;;;;;4973721;28;20034;-66
2022/01/07 03:13:00;;;;;;;36.95;24.42;;;;;;;;;;4973793;28;20019;-69
2022/01/07 03:15:26;;;;;;;41.95;27.73;;;;;;;;;;4973487;28;20077;-67
2022/01/07 03:17:52;;;;;;;33.53;22.40;;;;;;;;;;4973672;28;20025;-66
2022/01/07 03:20:19;;;;;;;36.95;24.05;;;;;;;;;;4973723;28;20110;-69
2022/01/07 03:22:46;;;;;;;36.78;24.67;;;;;;;;;;4973832;28;20019;-64
2022/01/07 03:25:12;;;;;;;38.45;25.60;;;;;;;;;;4973457;28;20390;-68
2022/01/07 03:27:39;;;;;;;33.13;21.10;;;;;;;;;;4973237;28;20051;-64
2022/01/07 03:30:06;;;;;;;32.60;20.63;;;;;;;;;;4973712;28;20034;-68
2022/01/07 03:32:32;;;;;;;30.38;19.58;;;;;;;;;;4973757;28;20030;-68
2022/01/07 03:34:58;;;;;;;27.83;19.02;;;;;;;;;;4973556;28;20026;-68
2022/01/07 03:37:24;;;;;;;28.33;18.58;;;;;;;;;;4973630;28;20105;-66
2022/01/07 03:39:50;;;;;;;30.88;19.23;;;;;;;;;;4979898;28;20038;-66
2022/01/07 03:42:16;;;;;;;28.88;18.65;;;;;;;;;;4993022;28;20022;-67
2022/01/07 03:44:42;;;;;;;27.10;19.23;;;;;;;;;;4992923;28;20026;-68
2022/01/07 03:47:09;;;;;;;29.42;18.00;;;;;;;;;;4995357;28;20081;-67
2022/01/07 03:49:35;;;;;;;22.90;16.75;;;;;;;;;;4997090;28;20388;-64
2022/01/07 03:52:01;;;;;;;26.23;18.00;;;;;;;;;;4996790;28;20022;-63
2022/01/07 03:54:27;;;;;;;25.92;18.27;;;;;;;;;;4996830;28;20027;-65
2022/01/07 03:56:53;;;;;;;24.65;18.33;;;;;;;;;;4996291;28;20113;-67
2022/01/07 03:59:19;;;;;;;25.95;16.85;;;;;;;;;;4988796;28;20031;-66
2022/01/07 04:01:45;;;;;;;24.88;17.25;;;;;;;;;;4977099;28;20482;-66
2022/01/07 04:04:11;;;;;;;27.25;18.77;;;;;;;;;;4977093;28;20453;-66
2022/01/07 04:06:37;;;;;;;30.80;21.15;;;;;;;;;;4976992;28;20041;-67
2022/01/07 04:09:03;;;;;;;27.10;18.67;;;;;;;;;;4976807;28;20041;-66
2022/01/07 04:11:29;;;;;;;23.10;15.90;;;;;;;;;;4976914;28;20027;-67
2022/01/07 04:13:55;;;;;;;21.30;13.13;;;;;;;;;;4976898;28;20027;-68
2022/01/07 04:16:21;;;;;;;18.15;12.57;;;;;;;;;;4959669;28;20022;-65
2022/01/07 04:18:47;;;;;;;18.70;12.63;;;;;;;;;;4976621;28;20404;-69
2022/01/07 04:21:14;;;;;;;24.75;14.82;;;;;;;;;;4976831;28;20034;-68
2022/01/07 04:23:40;;;;;;;24.15;15.27;;;;;;;;;;4976908;28;20361;-63
2022/01/07 04:26:06;;;;;;;21.92;13.68;;;;;;;;;;4976376;28;20117;-68
2022/01/07 04:28:32;;;;;;;20.60;13.48;;;;;;;;;;4976537;28;20460;-69
2022/01/07 04:30:58;;;;;;;16.83;12.18;;;;;;;;;;4976715;28;20485;-63
2022/01/07 04:33:30;;;;;;;20.42;13.38;;;;;;;;;;4976298;28;20035;-66
2022/01/07 04:35:56;;;;;;;;;;;;;;;;;;4976915;28;20497;-68
2022/01/07 04:38:22;;;;;;;31.08;18.90;;;;;;;;;;4976561;28;20005;-68
2022/01/07 04:40:48;;;;;;;29.33;18.02;;;;;;;;;;4989020;28;20034;-69
2022/01/07 04:43:15;;;;;;;29.08;18.77;;;;;;;;;;4995713;28;20024;-66
2022/01/07 04:45:41;;;;;;;26.80;17.20;;;;;;;;;;4995731;28;20034;-66
2022/01/07 04:48:07;;;;;;;23.27;14.95;;;;;;;;;;4995896;28;20109;-68
2022/01/07 04:50:33;;;;;;;22.58;15.43;;;;;;;;;;4995696;28;20512;-69
2022/01/07 04:53:00;;;;;;;21.58;13.50;;;;;;;;;;4995581;28;20477;-68
2022/01/07 04:55:36;;;;;;;22.80;13.00;;;;;;;;;;4995230;28;20026;-67
2022/01/07 04:58:02;;;;;;;18.70;11.98;;;;;;;;;;4994069;28;20105;-65
2022/01/07 05:00:29;;;;;;;23.35;15.35;;;;;;;;;;4978398;28;20039;-65
2022/01/07 05:02:55;;;;;;;27.95;17.70;;;;;;;;;;4975938;28;20414;-69
2022/01/07 05:05:21;;;;;;;24.92;16.25;;;;;;;;;;4975858;28;20033;-65
2022/01/07 05:07:47;;;;;;;17.95;11.82;;;;;;;;;;4976083;28;20110;-70
2022/01/07 05:10:14;;;;;;;20.38;13.55;;;;;;;;;;4975496;28;20034;-68
2022/01/07 05:12:42;;;;;;;27.17;17.40;;;;;;;;;;4975739;28;20224;-70
2022/01/07 05:15:09;;;;;;;37.55;20.73;;;;;;;;;;4975870;28;20393;-70
2022/01/07 05:17:35;;;;;;;28.90;18.40;;;;;;;;;;4975668;28;20105;-70
2022/01/07 05:20:01;;;;;;;33.58;19.40;;;;;;;;;;4975612;28;20489;-70
2022/01/07 05:22:28;;;;;;;25.42;15.48;;;;;;;;;;4975555;28;20030;-71
2022/01/07 05:24:54;;;;;;;22.15;14.98;;;;;;;;;;4975407;28;20033;-70
2022/01/07 05:27:20;;;;;;;18.30;13.23;;;;;;;;;;4975045;28;20572;-69
2022/01/07 05:29:46;;;;;;;24.42;15.63;;;;;;;;;;4975480;28;20038;-70
2022/01/07 05:32:13;;;;;;;29.85;19.67;;;;;;;;;;4975240;28;20477;-70
2022/01/07 05:34:39;;;;;;;40.10;24.13;;;;;;;;;;4975386;28;20548;-67
2022/01/07 05:37:07;;;;;;;62.15;33.88;;;;;;;;;;4973963;28;20033;-69
2022/01/07 05:39:33;;;;;;;52.30;32.50;;;;;;;;;;4978612;28;20034;-72
2022/01/07 05:41:59;;;;;;;46.97;32.17;;;;;;;;;;4994633;28;20023;-71
2022/01/07 05:44:26;;;;;;;55.08;34.05;;;;;;;;;;4994941;28;20134;-68
2022/01/07 05:46:52;;;;;;;76.00;43.03;;;;;;;;;;4993359;28;20452;-72
2022/01/07 05:49:20;;;;;;;75.95;46.60;;;;;;;;;;4994549;28;20026;-71
2022/01/07 05:51:46;;;;;;;57.38;38.80;;;;;;;;;;4994633;28;20473;-72
2022/01/07 05:54:13;;;;;;;57.97;38.72;;;;;;;;;;4994449;28;20187;-71
2022/01/07 05:56:39;;;;;;;59.00;39.78;;;;;;;;;;4994107;28;20026;-71
2022/01/07 05:59:05;;;;;;;66.78;44.33;;;;;;;;;;4988444;28;20081;-68
2022/01/07 06:01:31;;;;;;;79.32;49.45;;;;;;;;;;4974914;28;20023;-67
2022/01/07 06:03:57;;;;;;;83.72;52.05;;;154.50;1868.80;;;;;;4974731;28;20110;-66
2022/01/07 06:06:23;;;;;;;89.90;53.88;;;154.50;1868.80;;;;;;4974426;28;20050;-67
2022/01/07 06:08:48;;;;;;;122.40;71.82;;;154.50;1894.40;;;;;;4974604;28;20423;-66
2022/01/07 06:11:14;;;;;;;102.70;62.85;;;154.40;1920.00;;;;;;4974219;28;20034;-64
2022/01/07 06:13:40;;;;;;;186.48;120.78;;;154.10;1945.60;;;;;;4974636;28;20099;-67
2022/01/07 06:16:07;;;;;;;147.95;112.15;;;154.30;1971.20;;;;;;4974876;28;20027;-66
2022/01/07 06:18:32;;;;;;;115.03;82.82;;;154.50;1945.60;;;;;;4974457;28;20057;-66
2022/01/07 06:20:58;;;;;;;102.30;68.28;;;154.50;2252.80;;;;;;4974482;28;20070;-65
2022/01/07 06:23:24;;;;;;;97.30;67.40;;;154.50;1945.60;;;;;;4974444;28;20169;-61
2022/01/07 06:25:50;;;;;;;81.82;59.30;;;179.20;1920.00;;;;;;4974228;28;20093;-67
2022/01/07 06:28:17;;;;;;;99.80;66.18;;;154.50;1945.60;;;;;;4974228;28;20106;-69
2022/01/07 06:30:43;;;;;;;167.45;116.13;;;154.50;1971.20;;;;;;4974287;28;20027;-69
2022/01/07 06:33:09;;;;;;;170.50;122.38;;;154.50;1945.60;;;;;;4974273;28;20023;-70
2022/01/07 06:35:35;;;;;;;183.43;109.78;;;179.30;1945.60;;;;;;4974255;28;20081;-71
2022/01/07 06:38:00;;;;;;;175.63;115.95;;;179.20;1996.80;;;;;;4974157;28;20022;-72
2022/01/07 06:40:26;;;;;;;188.98;126.72;;;154.50;1996.80;;;;;;4984911;28;20042;-66
2022/01/07 06:42:52;;;;;;;217.90;144.68;;;154.40;2048.00;;;;;;4993910;28;20519;-71
2022/01/07 06:45:18;;;;;;;174.63;123.55;;;154.50;2048.00;;;;;;4993471;28;20468;-71
2022/01/07 06:47:46;;;;;;;152.40;110.63;;;154.50;2073.60;;;;;;4993272;28;20023;-72
2022/01/07 06:50:14;;;;;;;140.50;101.18;;;154.50;2073.60;;;;;;4993493;28;20053;-72
2022/01/07 06:52:40;;;;;;;112.00;83.65;;;154.30;2252.80;;;;;;4993417;28;20153;-72
2022/01/07 06:55:06;;;;;;;121.05;83.63;;;154.40;2073.60;;;;;;4975744;28;20117;-66
2022/01/07 06:57:32;;;;;;;135.35;90.20;;;;;;;;;;4991365;28;20473;-69
2022/01/07 06:59:58;;;;;;;126.75;89.22;;;;;;;;;;4980352;28;20043;-70
2022/01/07 07:02:24;;;;;;;150.15;105.35;;;;;;;;;;4973965;28;20027;-65
2022/01/07 07:04:50;;;;;;;170.95;114.25;;;153.70;2176.00;;;;;;4973831;28;20027;-70
2022/01/07 07:07:16;;;;;;;164.68;111.15;;;153.80;2150.40;;;;;;4973854;28;20114;-71
2022/01/07 07:09:42;;;;;;;163.55;106.93;;;153.90;2176.00;;;;;;4973705;28;20445;-70
2022/01/07 07:12:08;;;;;;;147.82;96.28;;;128.90;2227.20;;;;;;4973602;28;20023;-68
2022/01/07 07:14:35;;;;;;;140.93;94.78;;;153.70;2252.80;;;;;;4973610;28;20162;-69
2022/01/07 07:17:01;;;;;;;159.07;102.85;;;153.80;2176.00;;;;;;4973880;28;20019;-69
2022/01/07 07:19:27;;;;;;;90.68;64.28;;;153.80;2150.40;;;;;;4973764;28;20033;-68
2022/01/07 07:21:55;;;;;;;99.30;66.90;;;153.90;2124.80;;;;;;4976042;28;20093;-66
2022/01/07 07:24:21;;;;;;;109.38;70.68;;;153.90;2099.20;;;;;;4977993;28;20026;-64
2022/01/07 07:26:47;;;;;;;110.40;76.70;;;154.00;2124.80;;;;;;4977289;28;20050;-67
2022/01/07 07:29:12;;;;;;;135.25;90.72;;;154.10;2124.80;;;;;;4977928;28;20417;-67
2022/01/07 07:31:41;;;;;;;136.13;90.78;;;154.20;2099.20;;;;;;4977694;28;20027;-72
2022/01/07 07:36:33;;;;;;;260.30;158.23;;;;;;;;;;4977894;28;20492;-71
2022/01/07 07:39:06;;;;;;;187.43;123.80;;;;;;;;;;4977501;28;20030;-68
2022/01/07 07:41:33;;;;;;;165.10;111.20;;;;;;;;;;4996410;28;20044;-72
2022/01/07 07:43:59;;;;;;;161.15;117.97;;;;;;;;;;4996840;28;20022;-65
2022/01/07 07:46:27;;;;;;;181.80;128.57;;;;;;;;;;4997196;28;20416;-65
2022/01/07 07:48:53;;;;;;;179.30;128.80;;;;;;;;;;4996586;28;20023;-71
2022/01/07 07:51:19;;;;;;;188.13;132.95;;;;;;;;;;4996679;28;20054;-71
2022/01/07 07:53:46;;;;;;;207.57;139.38;;;179.70;2022.40;;;;;;4996739;28;20081;-65
2022/01/07 07:56:14;;;;;;;214.60;149.43;;;179.70;2022.40;;;;;;4996846;28;20030;-72
2022/01/07 07:58:40;;;;;;;203.45;139.90;;;179.90;2022.40;;;;;;4993993;28;20105;-68
2022/01/07 08:01:06;;;;;;;197.32;137.30;;;180.10;2022.40;;;;;;4975392;28;20057;-68
2022/01/07 08:03:35;;;;;;;207.20;143.05;;;;;;;;;;4977028;28;20026;-68
2022/01/07 08:06:01;;;;;;;206.65;149.73;;;;;;;;;;4976029;28;20481;-67
2022/01/07 08:08:27;;;;;;;130.13;93.05;;;205.10;2176.00;;;;;;4959123;28;20505;-67
2022/01/07 08:10:57;;;;;;;120.60;76.72;;;205.20;1817.60;;;;;;4990088;28;20033;-66
2022/01/07 08:13:28;;;;;;;104.00;70.97;;;205.30;1740.80;;;;;;4996139;28;20102;-66
2022/01/07 08:15:59;;;;;;;93.03;60.35;;;205.30;1715.20;;;;;;4996240;28;20035;-66
2022/01/07 08:18:31;;;;;;;101.03;62.38;;;;;;;;;;4996239;28;20104;-68
2022/01/07 08:21:00;;;;;;;68.72;44.78;;;230.40;1638.40;;;;;;4988466;28;20043;-68
2022/01/07 08:23:33;;;;;;;60.90;37.67;;;230.40;1664.00;;;;;;4975995;28;20031;-70
2022/01/07 08:25:59;;;;;;;64.90;44.85;;;230.60;1664.00;;;;;;4975963;28;20023;-68
2022/01/07 08:28:33;;;;;;;63.25;41.13;;;230.50;1664.00;;;;;;4976051;28;20033;-66
2022/01/07 08:31:01;;;;;;;76.47;50.95;;;230.50;1638.40;;;;;;4976188;28;20031;-66
2022/01/07 08:36:19;;;;;;;178.00;106.20;;;230.70;1638.40;;;;;;4976500;28;20046;-69
2022/01/07 08:38:46;;;;;;;101.75;71.15;;;230.60;1638.40;;;;;;4976525;28;20019;-65
2022/01/07 08:41:12;;;;;;;115.82;85.10;;;230.50;1638.40;;;;;;4989424;28;20157;-66
2022/01/07 08:43:38;;;;;;;131.25;90.68;;;;;;;;;;4975928;28;20022;-66
2022/01/07 08:46:07;;;;;;;119.60;82.60;;;205.30;1689.60;;;;;;4978485;28;20441;-69
2022/01/07 08:48:35;;;;;;;138.00;89.35;;;205.40;1664.00;;;;;;4995622;28;20481;-69
2022/01/07 08:51:01;;;;;;;93.50;61.75;;;205.40;1638.40;;;;;;4995382;28;20027;-67
2022/01/07 08:53:27;;;;;;;96.07;66.97;;;205.40;1843.20;;;;;;4995451;28;20030;-68
2022/01/07 08:55:53;;;;;;;108.32;71.68;;;205.30;1664.00;;;;;;4995914;28;20032;-68
2022/01/07 08:58:22;;;;;;;88.45;55.88;;;205.20;1664.00;;;;;;4990964;28;20121;-69
2022/01/07 09:00:47;;;;;;;65.70;43.13;;;205.50;1638.40;;;;;;4956648;29;20590;-68
2022/01/07 09:03:13;;;;;;;87.65;52.92;;;205.70;1561.60;;;;;;4956583;29;20102;-68
2022/01/07 09:05:40;;;;;;;92.38;58.13;;;;;;;;;;4956678;29;20035;-67
2022/01/07 09:08:12;;;;;;;44.47;29.05;;;230.90;1484.80;;;;;;4939102;29;20485;-68
2022/01/07 09:10:39;;;;;;;46.97;28.63;;;;;;;;;;4979681;28;20065;-68
2022/01/07 09:13:05;;;;;;;46.95;27.75;;;;;;;;;;4995126;28;20068;-66
2022/01/07 09:15:31;;;;;;;27.85;19.83;;;;;;;;;;4995194;28;20132;-68
2022/01/07 09:17:57;;;;;;;66.00;39.55;;;;;;;;;;4995075;28;20026;-68
2022/01/07 09:20:26;;;;;;;31.25;21.27;;;;;;;;;;4995158;28;20137;-68
2022/01/07 09:22:55;;;;;;;34.78;29.67;;;;;;;;;;4995172;28;20420;-68
2022/01/07 09:25:21;;;;;;;41.40;31.52;;;;;;;;;;4994994;28;20166;-66
2022/01/07 09:27:48;;;;;;;38.28;25.48;;;;;;;;;;4995109;28;20055;-66
2022/01/07 09:30:13;;;;;;;27.15;22.35;;;410.50;998.40;;;;;;4994776;28;20041;-67
2022/01/07 09:32:40;;;;;;;44.88;28.00;;;;;;;;;;4994460;28;20392;-67
2022/01/07 09:35:06;;;;;;;1999.90;859.55;;;;;;;;;;4994418;28;20084;-66
2022/01/07 09:37:33;;;;;;;281.45;231.30;;;;;;;;;;4994652;28;20082;-71
2022/01/07 09:40:02;;;;;;;57.17;34.75;;;;;;;;;;4994269;28;20022;-72
2022/01/07 09:42:28;;;;;;;25.92;18.33;;;;;;;;;;4994853;28;20077;-72
2022/01/07 09:44:54;;;;;;;24.65;18.90;;;;;;;;;;4993788;28;20121;-72
2022/01/07 09:47:26;;;;;;;26.88;19.63;;;589.00;716.80;;;;;;4994362;28;20030;-72
2022/01/07 09:49:52;;;;;;;24.73;17.60;;;;;;;;;;4993898;28;20026;-72
2022/01/07 09:52:18;;;;;;;35.10;21.35;;;;;;;;;;4994580;28;20085;-71
2022/01/07 09:54:44;;;;;;;22.48;17.40;;;;;;;;;;4994667;28;20023;-73
2022/01/07 09:57:13;;;;;;;38.75;22.00;;;;;;;;;;4994405;28;20030;-72
2022/01/07 09:59:39;;;;;;;35.85;19.38;;;;;;;;;;4983791;28;20038;-72
2022/01/07 10:02:06;;;;;;;23.75;19.73;;;;;;;;;;4972850;28;20504;-72
2022/01/07 10:04:33;;;;;;;26.40;21.05;;;;;;;;;;4974763;28;20043;-70
2022/01/07 10:07:21;;;;;;;25.02;17.67;;;614.60;691.20;;;;;;4974814;28;20078;-72
2022/01/07 10:09:56;;;;;;;26.20;18.08;;;;;;;;;;4974397;28;20034;-72
2022/01/07 10:12:22;;;;;;;56.10;43.55;;;;;;;;;;4974757;28;20027;-72
2022/01/07 10:15:08;;;;;;;27.27;22.48;;;;;;;;;;4974408;28;20023;-71
2022/01/07 10:17:34;;;;;;;32.63;19.73;;;;;;;;;;4978771;28;20022;-70
2022/01/07 10:20:08;;;;;;;28.95;17.42;;;;;;;;;;4977381;28;20042;-67
2022/01/07 10:22:59;;;;;;;23.10;16.42;;;614.50;640.00;;;;;;4974830;28;20090;-66
2022/01/07 10:25:27;;;;;;;19.02;15.80;;;;;;;;;;4974269;28;20026;-70
2022/01/07 10:27:58;;;;;;;32.28;25.63;;;;;;;;;;4974198;28;20101;-71
2022/01/07 10:30:27;;;;;;;;;;;;;;;;;;4974398;28;20038;-69
2022/01/07 10:32:56;;;;;;;30.38;21.23;;;615.30;614.40;;;;;;4974128;28;19957;-71
2022/01/07 10:35:31;;;;;;;33.50;20.70;;;;;;;;;;4973979;28;20045;-70
2022/01/07 10:38:02;;;;;;;36.03;21.55;;;589.00;691.20;;;;;;4973866;28;20023;-67
2022/01/07 10:40:40;;;;;;;45.70;30.45;;;588.90;716.80;;;;;;4983795;28;20033;-71
2022/01/07 10:43:12;;;;;;;24.23;17.45;;;;;;;;;;4993293;28;20026;-68
2022/01/07 10:45:39;;;;;;;33.80;23.13;;;615.10;742.40;;;;;;4993351;28;20116;-72
2022/01/07 10:48:08;;;;;;;63.38;36.33;;;;;;;;;;4990077;28;20042;-72
2022/01/07 10:50:39;;;;;;;67.50;42.88;;;;;;;;;;4993482;28;20452;-72
2022/01/07 10:53:24;;;;;;;23.73;19.40;;;615.30;640.00;;;;;;4975905;28;20034;-69
2022/01/07 10:55:56;;;;;;;57.28;49.25;;;615.20;640.00;;;;;;4993133;28;20188;-68
2022/01/07 10:58:22;;;;;;;33.30;24.90;;;;;;;;;;4992974;28;20120;-70
2022/01/07 11:00:51;;;;;;;39.22;31.42;;;;;;;;;;4973636;28;20516;-70
2022/01/07 11:03:17;;;;;;;29.48;23.63;;;;;;;;;;4973712;28;20385;-70
2022/01/07 11:05:43;;;;;;;49.50;29.42;;;;;;;;;;4973593;28;20030;-72
2022/01/07 11:08:09;;;;;;;42.42;30.25;;;;;;;;;;4973786;28;20082;-66
2022/01/07 11:10:38;;;;;;;42.83;31.23;;;;;;;;;;4973672;28;20027;-67
2022/01/07 11:13:04;;;;;;;82.95;51.38;;;563.90;716.80;;;;;;4973651;28;20030;-68
2022/01/07 11:15:30;;;;;;;34.25;24.85;;;563.90;716.80;;;;;;4974035;28;20474;-69
2022/01/07 11:17:56;;;;;;;47.95;31.13;;;;;;;;;;4973456;28;20551;-71
2022/01/07 11:20:25;;;;;;;133.23;82.53;;;;;;;;;;4974635;28;20135;-66
2022/01/07 11:22:52;;;;;;;40.50;27.02;;;;;;;;;;4973876;28;20081;-66
2022/01/07 11:25:18;;;;;;;82.43;50.25;;;;;;;;;;4972880;28;20041;-65
2022/01/07 11:27:49;;;;;;;53.33;32.38;;;;;;;;;;4988888;28;20049;-65
2022/01/07 11:30:17;;;;;;;40.00;25.83;;;;;;;;;;4991274;28;20037;-71
2022/01/07 11:32:47;;;;;;;99.85;69.93;;;;;;;;;;4992711;28;20041;-65
2022/01/07 11:35:20;;;;;;;84.85;57.88;;;;;;;;;;4990641;28;20491;-72
2022/01/07 11:37:50;;;;;;;135.07;86.60;;;;;;;;;;4992070;28;20022;-69
2022/01/07 11:40:31;;;;;;;58.38;45.95;;;;;;;;;;4993144;28;20042;-70
2022/01/07 11:43:06;;;;;;;111.60;82.57;;;487.30;768.00;;;;;;4992714;28;20150;-71
2022/01/07 11:45:32;;;;;;;56.20;26.80;;;;;;;;;;4993120;28;20031;-70
2022/01/07 11:48:10;;;;;;;257.63;154.02;;;;;;;;;;4992779;28;20019;-72
2022/01/07 11:51:13;;;;;;;119.13;68.97;;;486.80;793.60;;;;;;4992564;28;20487;-71
2022/01/07 11:53:42;;;;;;;60.40;36.17;;;;;;;;;;4992514;28;20093;-69
2022/01/07 11:56:09;;;;;;;37.15;24.17;;;;;;;;;;4992907;28;20031;-71
2022/01/07 11:58:42;;;;;;;99.03;53.67;;;;;;;;;;4991352;28;20043;-72
2022/01/07 12:01:23;;;;;;;94.93;54.42;;;;;;;;;;4992767;28;20046;-66
2022/01/07 12:03:49;;;;;;;130.18;73.40;;;;;;;;;;4973032;28;20027;-71
2022/01/07 12:06:19;;;;;;;30.77;21.15;;;;;;;;;;4973161;28;20027;-69
2022/01/07 12:08:57;;;;;;;32.65;22.92;;;;;;;;;;4976268;28;20386;-71
2022/01/07 12:11:34;;;;;;;94.30;56.55;;;486.40;793.60;;;;;;4994878;28;20040;-71
2022/01/07 12:14:00;;;;;;;32.95;23.95;;;;;;;;;;4996322;28;20038;-71
2022/01/07 12:16:32;;;;;;;250.77;142.20;;;460.90;819.20;;;;;;4996005;28;20117;-68
2022/01/07 12:19:12;;;;;;;135.57;69.25;;;461.10;819.20;;;;;;4996756;28;20030;-68
2022/01/07 12:21:39;;;;;;;164.63;92.97;;;;;;;;;;4993297;28;20034;-66
2022/01/07 12:24:10;;;;;;;40.15;27.63;;;460.80;870.40;;;;;;4995891;28;20026;-65
2022/01/07 12:26:36;;;;;;;88.17;49.33;;;436.00;844.80;;;;;;4988540;28;20493;-71
2022/01/07 12:29:03;;;;;;;75.20;42.67;;;;;;;;;;4976766;28;20039;-71
2022/01/07 12:31:36;;;;;;;168.32;102.47;;;;;;;;;;4958769;28;20385;-64
2022/01/07 12:34:02;;;;;;;106.13;65.65;;;;;;;;;;4974154;28;20043;-71
2022/01/07 12:36:35;;;;;;;95.00;57.03;;;460.80;870.40;;;;;;4976280;28;20022;-69
2022/01/07 12:39:09;;;;;;;48.47;33.22;;;460.80;896.00;;;;;;4976268;28;20030;-71
2022/01/07 12:41:35;;;;;;;35.70;26.13;;;;;;;;;;4976031;28;20042;-73
2022/01/07 12:44:08;;;;;;;35.85;27.00;;;;;;;;;;4976019;28;20023;-70
2022/01/07 12:46:37;;;;;;;29.42;21.15;;;;;;;;;;4975950;28;20435;-72
2022/01/07 12:49:04;;;;;;;28.13;20.88;;;410.50;947.20;;;;;;4976056;28;20508;-70
2022/01/07 12:51:30;;;;;;;29.73;19.83;;;;;;;;;;4975995;28;20081;-69
2022/01/07 12:53:56;;;;;;;39.63;26.92;;;;;;;;;;4975782;28;20480;-68
2022/01/07 12:56:27;;;;;;;68.47;39.78;;;;;;;;;;4975817;28;20018;-67
2022/01/07 12:58:54;;;;;;;40.20;25.50;;;;;;;;;;4978387;28;20031;-65
2022/01/07 13:01:29;;;;;;;33.72;17.70;;;;;;;;;;4976254;28;20035;-68
2022/01/07 13:04:03;;;;;;;29.13;18.52;;;;;;;;;;4974346;28;20417;-67
2022/01/07 13:06:29;;;;;;;19.70;14.60;;;;;;;;;;4975776;28;20118;-68
2022/01/07 13:08:57;;;;;;;40.45;28.42;;;;;;;;;;4977100;28;20033;-69
2022/01/07 13:11:23;;;;;;;41.03;25.10;;;410.10;947.20;;;;;;4979651;28;20058;-68
2022/01/07 13:14:05;;;;;;;30.60;20.10;;;410.20;972.80;;;;;;4975644;28;20062;-71
2022/01/07 13:16:35;;;;;;;47.45;21.73;;;410.20;947.20;;;;;;4975551;28;20027;-70
2022/01/07 13:19:05;;;;;;;21.02;13.43;;;410.30;947.20;;;;;;4974518;28;20023;-70
2022/01/07 13:21:32;;;;;;;35.38;23.63;;;;;;;;;;4975144;28;20062;-70
2022/01/07 13:24:00;;;;;;;37.30;19.85;;;;;;;;;;4975286;28;20030;-70
2022/01/07 13:26:32;;;;;;;23.55;15.45;;;409.60;972.80;;;;;;4981975;28;20077;-69